Terminal Aerodrome Forecast
Issued by NWS Huntsville, AL

Home | Current Version | Previous Version | Text Only | Print | Product List | Glossary On
Versions: 1 2 3 4 5 6 7 8 9 10 11 12 13 14 15 16 17 18 19 20 21 22 23 24 25 26 27 28 29 30 31 32 33
000
FTUS44 KHUN 240529
TAFMSL
TAF
KMSL 240529Z 2406/2506 VRB04KT P6SM OVC080
     FM240700 VRB03KT 5SM BR OVC015
      TEMPO 2409/2412 2SM BR OVC007
     FM241400 29009G14KT P6SM OVC015
     FM242000 30010G15KT P6SM BKN030
     FM250000 31007KT P6SM OVC015=

USA.gov is the U.S. government's official web portal to all federal, state and local government web resources and services.